sensor_id;sensor_type;location;lat;lon;timestamp;P1;durP1;ratioP1;P2;durP2;ratioP2
76023;SDS011;64719;52.124;6.226;2022-12-29T00:02:27;5.35;;;3.85;;
76023;SDS011;64719;52.124;6.226;2022-12-29T00:04:53;5.15;;;3.53;;
76023;SDS011;64719;52.124;6.226;2022-12-29T00:07:20;5.00;;;3.33;;
76023;SDS011;64719;52.124;6.226;2022-12-29T00:09:46;5.68;;;3.50;;
76023;SDS011;64719;52.124;6.226;2022-12-29T00:12:13;4.95;;;4.05;;
76023;SDS011;64719;52.124;6.226;2022-12-29T00:14:39;4.95;;;3.60;;
76023;SDS011;64719;52.124;6.226;2022-12-29T00:17:23;4.82;;;3.83;;
76023;SDS011;64719;52.124;6.226;2022-12-29T00:19:51;5.93;;;3.88;;
76023;SDS011;64719;52.124;6.226;2022-12-29T00:22:35;5.47;;;4.05;;
76023;SDS011;64719;52.124;6.226;2022-12-29T00:25:19;5.57;;;3.42;;
76023;SDS011;64719;52.124;6.226;2022-12-29T00:28:14;5.00;;;3.42;;
76023;SDS011;64719;52.124;6.226;2022-12-29T00:30:59;6.22;;;3.72;;
76023;SDS011;64719;52.124;6.226;2022-12-29T00:33:43;6.07;;;3.78;;
76023;SDS011;64719;52.124;6.226;2022-12-29T00:36:29;5.72;;;3.35;;
76023;SDS011;64719;52.124;6.226;2022-12-29T00:38:59;5.47;;;3.53;;
76023;SDS011;64719;52.124;6.226;2022-12-29T00:41:46;6.30;;;4.10;;
76023;SDS011;64719;52.124;6.226;2022-12-29T00:44:31;5.35;;;3.70;;
76023;SDS011;64719;52.124;6.226;2022-12-29T00:46:57;5.00;;;3.40;;
76023;SDS011;64719;52.124;6.226;2022-12-29T00:49:27;6.25;;;4.10;;
76023;SDS011;64719;52.124;6.226;2022-12-29T00:51:58;4.80;;;3.58;;
76023;SDS011;64719;52.124;6.226;2022-12-29T00:54:26;5.82;;;3.70;;
76023;SDS011;64719;52.124;6.226;2022-12-29T00:56:53;6.32;;;4.10;;
76023;SDS011;64719;52.124;6.226;2022-12-29T00:59:20;5.70;;;3.63;;
76023;SDS011;64719;52.124;6.226;2022-12-29T01:01:49;5.68;;;4.00;;
76023;SDS011;64719;52.124;6.226;2022-12-29T01:04:16;6.57;;;4.63;;
76023;SDS011;64719;52.124;6.226;2022-12-29T01:06:42;6.20;;;4.10;;
76023;SDS011;64719;52.124;6.226;2022-12-29T01:09:10;6.53;;;3.78;;
76023;SDS011;64719;52.124;6.226;2022-12-29T01:11:55;4.70;;;3.33;;
76023;SDS011;64719;52.124;6.226;2022-12-29T01:14:22;4.10;;;2.90;;
76023;SDS011;64719;52.124;6.226;2022-12-29T01:16:49;4.30;;;3.22;;
76023;SDS011;64719;52.124;6.226;2022-12-29T01:19:16;5.45;;;2.97;;
76023;SDS011;64719;52.124;6.226;2022-12-29T01:24:12;4.32;;;3.10;;
76023;SDS011;64719;52.124;6.226;2022-12-29T01:26:39;3.75;;;2.75;;
76023;SDS011;64719;52.124;6.226;2022-12-29T01:29:05;5.00;;;2.70;;
76023;SDS011;64719;52.124;6.226;2022-12-29T01:31:32;5.10;;;2.30;;
76023;SDS011;64719;52.124;6.226;2022-12-29T01:33:58;3.42;;;2.10;;
76023;SDS011;64719;52.124;6.226;2022-12-29T01:36:25;5.00;;;2.10;;
76023;SDS011;64719;52.124;6.226;2022-12-29T01:38:52;3.30;;;1.90;;
76023;SDS011;64719;52.124;6.226;2022-12-29T01:41:19;2.72;;;1.75;;
76023;SDS011;64719;52.124;6.226;2022-12-29T01:43:47;3.00;;;1.60;;
76023;SDS011;64719;52.124;6.226;2022-12-29T01:46:20;2.90;;;2.15;;
76023;SDS011;64719;52.124;6.226;2022-12-29T01:48:50;3.75;;;1.52;;
76023;SDS011;64719;52.124;6.226;2022-12-29T01:51:18;3.05;;;1.80;;
76023;SDS011;64719;52.124;6.226;2022-12-29T01:53:47;3.35;;;1.90;;
76023;SDS011;64719;52.124;6.226;2022-12-29T01:56:15;3.72;;;1.65;;
76023;SDS011;64719;52.124;6.226;2022-12-29T01:58:46;3.50;;;1.65;;
76023;SDS011;64719;52.124;6.226;2022-12-29T02:01:16;2.53;;;1.58;;
76023;SDS011;64719;52.124;6.226;2022-12-29T02:03:45;2.83;;;1.90;;
76023;SDS011;64719;52.124;6.226;2022-12-29T02:06:14;3.03;;;1.80;;
76023;SDS011;64719;52.124;6.226;2022-12-29T02:08:45;2.97;;;1.75;;
76023;SDS011;64719;52.124;6.226;2022-12-29T02:11:13;4.15;;;1.95;;
76023;SDS011;64719;52.124;6.226;2022-12-29T02:13:40;3.13;;;2.10;;
76023;SDS011;64719;52.124;6.226;2022-12-29T02:16:13;4.55;;;2.00;;
76023;SDS011;64719;52.124;6.226;2022-12-29T02:18:49;3.70;;;2.10;;
76023;SDS011;64719;52.124;6.226;2022-12-29T02:21:36;3.17;;;2.20;;
76023;SDS011;64719;52.124;6.226;2022-12-29T02:24:32;4.80;;;2.58;;
76023;SDS011;64719;52.124;6.226;2022-12-29T02:30:30;4.60;;;2.97;;
76023;SDS011;64719;52.124;6.226;2022-12-29T02:33:04;4.18;;;2.92;;
76023;SDS011;64719;52.124;6.226;2022-12-29T02:35:41;4.22;;;2.85;;
76023;SDS011;64719;52.124;6.226;2022-12-29T02:38:17;4.68;;;2.90;;
76023;SDS011;64719;52.124;6.226;2022-12-29T02:40:51;4.15;;;2.90;;
76023;SDS011;64719;52.124;6.226;2022-12-29T02:43:22;4.78;;;3.00;;
76023;SDS011;64719;52.124;6.226;2022-12-29T02:45:54;4.60;;;2.40;;
76023;SDS011;64719;52.124;6.226;2022-12-29T02:48:25;4.15;;;2.75;;
76023;SDS011;64719;52.124;6.226;2022-12-29T02:50:57;3.60;;;2.60;;
76023;SDS011;64719;52.124;6.226;2022-12-29T02:53:27;5.43;;;2.80;;
76023;SDS011;64719;52.124;6.226;2022-12-29T02:56:13;3.55;;;2.22;;
76023;SDS011;64719;52.124;6.226;2022-12-29T02:58:40;4.38;;;2.67;;
76023;SDS011;64719;52.124;6.226;2022-12-29T03:01:11;5.35;;;2.85;;
76023;SDS011;64719;52.124;6.226;2022-12-29T03:03:54;7.18;;;3.17;;
76023;SDS011;64719;52.124;6.226;2022-12-29T03:06:38;6.72;;;2.70;;
76023;SDS011;64719;52.124;6.226;2022-12-29T03:09:19;5.78;;;2.80;;
76023;SDS011;64719;52.124;6.226;2022-12-29T03:11:53;6.78;;;3.25;;
76023;SDS011;64719;52.124;6.226;2022-12-29T03:14:36;5.57;;;3.08;;
76023;SDS011;64719;52.124;6.226;2022-12-29T03:17:27;6.65;;;2.80;;
76023;SDS011;64719;52.124;6.226;2022-12-29T03:20:01;8.15;;;2.50;;
76023;SDS011;64719;52.124;6.226;2022-12-29T03:22:32;3.50;;;1.75;;
76023;SDS011;64719;52.124;6.226;2022-12-29T03:25:05;3.90;;;2.03;;
76023;SDS011;64719;52.124;6.226;2022-12-29T03:27:37;3.92;;;2.00;;
76023;SDS011;64719;52.124;6.226;2022-12-29T03:30:07;3.10;;;1.60;;
76023;SDS011;64719;52.124;6.226;2022-12-29T03:32:36;6.35;;;2.33;;
76023;SDS011;64719;52.124;6.226;2022-12-29T03:35:08;4.53;;;2.10;;
76023;SDS011;64719;52.124;6.226;2022-12-29T03:37:39;3.53;;;1.98;;
76023;SDS011;64719;52.124;6.226;2022-12-29T03:40:10;5.32;;;2.10;;
76023;SDS011;64719;52.124;6.226;2022-12-29T03:42:37;5.78;;;1.90;;
76023;SDS011;64719;52.124;6.226;2022-12-29T03:45:06;3.35;;;1.42;;
76023;SDS011;64719;52.124;6.226;2022-12-29T03:47:33;3.47;;;1.60;;
76023;SDS011;64719;52.124;6.226;2022-12-29T03:50:01;2.58;;;1.73;;
76023;SDS011;64719;52.124;6.226;2022-12-29T03:52:28;3.20;;;1.70;;
76023;SDS011;64719;52.124;6.226;2022-12-29T03:54:54;2.25;;;1.45;;
76023;SDS011;64719;52.124;6.226;2022-12-29T03:57:21;2.28;;;1.38;;
76023;SDS011;64719;52.124;6.226;2022-12-29T03:59:47;3.20;;;1.10;;
76023;SDS011;64719;52.124;6.226;2022-12-29T04:02:14;3.13;;;1.10;;
76023;SDS011;64719;52.124;6.226;2022-12-29T04:04:40;2.17;;;1.10;;
76023;SDS011;64719;52.124;6.226;2022-12-29T04:07:08;2.88;;;1.13;;
76023;SDS011;64719;52.124;6.226;2022-12-29T04:09:35;4.32;;;1.00;;
76023;SDS011;64719;52.124;6.226;2022-12-29T04:12:01;3.75;;;1.13;;
76023;SDS011;64719;52.124;6.226;2022-12-29T04:14:28;3.72;;;1.30;;
76023;SDS011;64719;52.124;6.226;2022-12-29T04:16:54;3.17;;;0.90;;
76023;SDS011;64719;52.124;6.226;2022-12-29T04:19:21;3.13;;;0.95;;
76023;SDS011;64719;52.124;6.226;2022-12-29T04:21:47;1.55;;;1.00;;
76023;SDS011;64719;52.124;6.226;2022-12-29T04:24:15;6.30;;;1.55;;
76023;SDS011;64719;52.124;6.226;2022-12-29T04:26:42;2.88;;;1.02;;
76023;SDS011;64719;52.124;6.226;2022-12-29T04:29:08;2.97;;;1.13;;
76023;SDS011;64719;52.124;6.226;2022-12-29T04:31:35;1.85;;;1.20;;
76023;SDS011;64719;52.124;6.226;2022-12-29T04:34:01;4.72;;;1.23;;
76023;SDS011;64719;52.124;6.226;2022-12-29T04:36:28;3.13;;;1.00;;
76023;SDS011;64719;52.124;6.226;2022-12-29T04:38:54;3.92;;;1.20;;
76023;SDS011;64719;52.124;6.226;2022-12-29T04:41:22;4.18;;;1.20;;
76023;SDS011;64719;52.124;6.226;2022-12-29T04:43:49;3.95;;;1.50;;
76023;SDS011;64719;52.124;6.226;2022-12-29T04:46:16;1.92;;;1.00;;
76023;SDS011;64719;52.124;6.226;2022-12-29T04:48:42;1.90;;;1.00;;
76023;SDS011;64719;52.124;6.226;2022-12-29T04:51:09;2.80;;;1.15;;
76023;SDS011;64719;52.124;6.226;2022-12-29T04:53:35;4.15;;;1.20;;
76023;SDS011;64719;52.124;6.226;2022-12-29T04:56:02;1.67;;;1.10;;
76023;SDS011;64719;52.124;6.226;2022-12-29T04:58:30;4.68;;;1.30;;
76023;SDS011;64719;52.124;6.226;2022-12-29T05:00:56;4.18;;;1.50;;
76023;SDS011;64719;52.124;6.226;2022-12-29T05:03:23;4.03;;;1.08;;
76023;SDS011;64719;52.124;6.226;2022-12-29T05:05:52;5.40;;;1.25;;
76023;SDS011;64719;52.124;6.226;2022-12-29T05:08:19;4.15;;;1.10;;
76023;SDS011;64719;52.124;6.226;2022-12-29T05:10:46;2.72;;;1.05;;
76023;SDS011;64719;52.124;6.226;2022-12-29T05:13:12;3.35;;;1.00;;
76023;SDS011;64719;52.124;6.226;2022-12-29T05:15:40;3.38;;;1.10;;
76023;SDS011;64719;52.124;6.226;2022-12-29T05:18:07;3.60;;;1.10;;
76023;SDS011;64719;52.124;6.226;2022-12-29T05:20:33;2.80;;;1.15;;
76023;SDS011;64719;52.124;6.226;2022-12-29T05:23:00;3.75;;;1.45;;
76023;SDS011;64719;52.124;6.226;2022-12-29T05:25:26;7.40;;;1.25;;
76023;SDS011;64719;52.124;6.226;2022-12-29T05:27:53;4.57;;;1.00;;
76023;SDS011;64719;52.124;6.226;2022-12-29T05:30:19;4.63;;;1.10;;
76023;SDS011;64719;52.124;6.226;2022-12-29T05:32:47;2.45;;;1.00;;
76023;SDS011;64719;52.124;6.226;2022-12-29T05:35:14;5.50;;;0.93;;
76023;SDS011;64719;52.124;6.226;2022-12-29T05:37:40;4.45;;;1.10;;
76023;SDS011;64719;52.124;6.226;2022-12-29T05:40:07;6.32;;;1.23;;
76023;SDS011;64719;52.124;6.226;2022-12-29T05:42:34;3.67;;;1.00;;
76023;SDS011;64719;52.124;6.226;2022-12-29T05:45:01;6.32;;;1.15;;
76023;SDS011;64719;52.124;6.226;2022-12-29T05:47:28;5.03;;;1.35;;
76023;SDS011;64719;52.124;6.226;2022-12-29T05:49:56;5.25;;;1.02;;
76023;SDS011;64719;52.124;6.226;2022-12-29T05:52:22;5.00;;;1.02;;
76023;SDS011;64719;52.124;6.226;2022-12-29T05:54:49;4.72;;;1.10;;
76023;SDS011;64719;52.124;6.226;2022-12-29T05:57:15;2.20;;;1.20;;
76023;SDS011;64719;52.124;6.226;2022-12-29T05:59:42;3.28;;;1.10;;
76023;SDS011;64719;52.124;6.226;2022-12-29T06:02:08;5.15;;;1.35;;
76023;SDS011;64719;52.124;6.226;2022-12-29T06:04:35;5.35;;;2.58;;
76023;SDS011;64719;52.124;6.226;2022-12-29T06:07:03;3.17;;;1.23;;
76023;SDS011;64719;52.124;6.226;2022-12-29T06:09:29;2.63;;;1.63;;
76023;SDS011;64719;52.124;6.226;2022-12-29T06:11:56;5.95;;;1.83;;
76023;SDS011;64719;52.124;6.226;2022-12-29T06:14:23;4.38;;;1.33;;
76023;SDS011;64719;52.124;6.226;2022-12-29T06:16:49;3.72;;;2.22;;
76023;SDS011;64719;52.124;6.226;2022-12-29T06:19:16;3.35;;;1.40;;
76023;SDS011;64719;52.124;6.226;2022-12-29T06:21:42;2.95;;;1.42;;
76023;SDS011;64719;52.124;6.226;2022-12-29T06:24:10;3.33;;;1.65;;
76023;SDS011;64719;52.124;6.226;2022-12-29T06:26:37;5.18;;;1.60;;
76023;SDS011;64719;52.124;6.226;2022-12-29T06:29:05;6.65;;;1.70;;
76023;SDS011;64719;52.124;6.226;2022-12-29T06:31:32;5.28;;;1.90;;
76023;SDS011;64719;52.124;6.226;2022-12-29T06:33:58;6.45;;;1.90;;
76023;SDS011;64719;52.124;6.226;2022-12-29T06:36:25;8.05;;;1.77;;
76023;SDS011;64719;52.124;6.226;2022-12-29T06:38:51;3.25;;;1.52;;
76023;SDS011;64719;52.124;6.226;2022-12-29T06:41:19;3.13;;;1.50;;
76023;SDS011;64719;52.124;6.226;2022-12-29T06:43:47;4.50;;;1.42;;
76023;SDS011;64719;52.124;6.226;2022-12-29T06:46:13;4.00;;;1.13;;
76023;SDS011;64719;52.124;6.226;2022-12-29T06:48:40;6.90;;;1.60;;
76023;SDS011;64719;52.124;6.226;2022-12-29T06:51:07;3.15;;;1.00;;
76023;SDS011;64719;52.124;6.226;2022-12-29T06:53:33;4.30;;;1.40;;
76023;SDS011;64719;52.124;6.226;2022-12-29T06:56:00;7.25;;;1.85;;
76023;SDS011;64719;52.124;6.226;2022-12-29T06:58:28;7.75;;;1.33;;
76023;SDS011;64719;52.124;6.226;2022-12-29T07:00:54;6.57;;;1.30;;
76023;SDS011;64719;52.124;6.226;2022-12-29T07:03:21;5.88;;;1.10;;
76023;SDS011;64719;52.124;6.226;2022-12-29T07:05:47;3.40;;;0.90;;
76023;SDS011;64719;52.124;6.226;2022-12-29T07:08:14;4.75;;;1.35;;
76023;SDS011;64719;52.124;6.226;2022-12-29T07:10:41;6.60;;;1.30;;
76023;SDS011;64719;52.124;6.226;2022-12-29T07:13:07;4.30;;;0.90;;
76023;SDS011;64719;52.124;6.226;2022-12-29T07:15:35;4.68;;;0.90;;
76023;SDS011;64719;52.124;6.226;2022-12-29T07:18:02;4.80;;;1.00;;
76023;SDS011;64719;52.124;6.226;2022-12-29T07:20:28;5.70;;;1.20;;
76023;SDS011;64719;52.124;6.226;2022-12-29T07:22:55;5.32;;;1.67;;
76023;SDS011;64719;52.124;6.226;2022-12-29T07:25:21;5.18;;;1.30;;
76023;SDS011;64719;52.124;6.226;2022-12-29T07:27:48;4.18;;;1.27;;
76023;SDS011;64719;52.124;6.226;2022-12-29T07:30:15;5.00;;;1.20;;
76023;SDS011;64719;52.124;6.226;2022-12-29T07:32:43;5.47;;;1.23;;
76023;SDS011;64719;52.124;6.226;2022-12-29T07:35:10;6.55;;;1.73;;
76023;SDS011;64719;52.124;6.226;2022-12-29T07:37:36;4.50;;;1.08;;
76023;SDS011;64719;52.124;6.226;2022-12-29T07:40:03;8.93;;;2.22;;
76023;SDS011;64719;52.124;6.226;2022-12-29T07:42:31;3.10;;;1.30;;
76023;SDS011;64719;52.124;6.226;2022-12-29T07:44:57;7.75;;;1.52;;
76023;SDS011;64719;52.124;6.226;2022-12-29T07:47:24;4.45;;;1.33;;
76023;SDS011;64719;52.124;6.226;2022-12-29T07:49:53;6.45;;;2.55;;
76023;SDS011;64719;52.124;6.226;2022-12-29T07:52:19;3.22;;;1.38;;
76023;SDS011;64719;52.124;6.226;2022-12-29T07:54:46;6.22;;;1.10;;
76023;SDS011;64719;52.124;6.226;2022-12-29T07:57:12;4.55;;;1.52;;
76023;SDS011;64719;52.124;6.226;2022-12-29T07:59:39;7.50;;;1.15;;
76023;SDS011;64719;52.124;6.226;2022-12-29T08:02:05;6.82;;;1.70;;
76023;SDS011;64719;52.124;6.226;2022-12-29T08:04:34;6.57;;;1.38;;
76023;SDS011;64719;52.124;6.226;2022-12-29T08:07:02;4.63;;;1.10;;
76023;SDS011;64719;52.124;6.226;2022-12-29T08:09:29;3.95;;;1.48;;
76023;SDS011;64719;52.124;6.226;2022-12-29T08:11:55;2.88;;;1.10;;
76023;SDS011;64719;52.124;6.226;2022-12-29T08:14:22;3.55;;;0.95;;
76023;SDS011;64719;52.124;6.226;2022-12-29T08:16:48;4.38;;;1.30;;
76023;SDS011;64719;52.124;6.226;2022-12-29T08:19:15;4.95;;;1.60;;
76023;SDS011;64719;52.124;6.226;2022-12-29T08:21:41;4.97;;;1.40;;
76023;SDS011;64719;52.124;6.226;2022-12-29T08:24:09;6.53;;;1.33;;
76023;SDS011;64719;52.124;6.226;2022-12-29T08:26:36;8.73;;;1.60;;
76023;SDS011;64719;52.124;6.226;2022-12-29T08:29:02;9.88;;;2.13;;
76023;SDS011;64719;52.124;6.226;2022-12-29T08:31:29;7.47;;;1.55;;
76023;SDS011;64719;52.124;6.226;2022-12-29T08:33:55;6.07;;;1.40;;
76023;SDS011;64719;52.124;6.226;2022-12-29T08:36:22;4.13;;;0.93;;
76023;SDS011;64719;52.124;6.226;2022-12-29T08:38:49;6.43;;;1.25;;
76023;SDS011;64719;52.124;6.226;2022-12-29T08:41:16;10.00;;;2.00;;
76023;SDS011;64719;52.124;6.226;2022-12-29T08:43:45;3.35;;;0.90;;
76023;SDS011;64719;52.124;6.226;2022-12-29T08:46:11;4.78;;;1.20;;
76023;SDS011;64719;52.124;6.226;2022-12-29T08:48:38;5.78;;;1.40;;
76023;SDS011;64719;52.124;6.226;2022-12-29T08:51:04;7.22;;;1.20;;
76023;SDS011;64719;52.124;6.226;2022-12-29T08:53:31;10.98;;;1.63;;
76023;SDS011;64719;52.124;6.226;2022-12-29T08:55:58;7.07;;;1.55;;
76023;SDS011;64719;52.124;6.226;2022-12-29T08:58:27;6.03;;;1.20;;
76023;SDS011;64719;52.124;6.226;2022-12-29T09:03:20;5.38;;;1.88;;
76023;SDS011;64719;52.124;6.226;2022-12-29T09:05:48;10.15;;;1.52;;
76023;SDS011;64719;52.124;6.226;2022-12-29T09:08:15;5.28;;;1.13;;
76023;SDS011;64719;52.124;6.226;2022-12-29T09:10:41;8.88;;;1.30;;
76023;SDS011;64719;52.124;6.226;2022-12-29T09:13:08;8.05;;;1.85;;
76023;SDS011;64719;52.124;6.226;2022-12-29T09:15:36;6.57;;;1.10;;
76023;SDS011;64719;52.124;6.226;2022-12-29T09:18:03;3.65;;;1.33;;
76023;SDS011;64719;52.124;6.226;2022-12-29T09:20:30;4.90;;;1.65;;
76023;SDS011;64719;52.124;6.226;2022-12-29T09:22:56;8.15;;;1.70;;
76023;SDS011;64719;52.124;6.226;2022-12-29T09:25:23;9.95;;;1.60;;
76023;SDS011;64719;52.124;6.226;2022-12-29T09:27:50;8.80;;;1.67;;
76023;SDS011;64719;52.124;6.226;2022-12-29T09:30:18;4.55;;;1.25;;
76023;SDS011;64719;52.124;6.226;2022-12-29T09:32:47;6.18;;;1.67;;
76023;SDS011;64719;52.124;6.226;2022-12-29T09:35:14;7.95;;;1.25;;
76023;SDS011;64719;52.124;6.226;2022-12-29T09:37:42;5.95;;;1.20;;
76023;SDS011;64719;52.124;6.226;2022-12-29T09:40:14;5.57;;;1.80;;
76023;SDS011;64719;52.124;6.226;2022-12-29T09:42:52;7.72;;;1.05;;
76023;SDS011;64719;52.124;6.226;2022-12-29T09:45:30;7.57;;;1.38;;
76023;SDS011;64719;52.124;6.226;2022-12-29T09:48:04;8.00;;;1.38;;
76023;SDS011;64719;52.124;6.226;2022-12-29T09:50:35;4.85;;;1.40;;
76023;SDS011;64719;52.124;6.226;2022-12-29T09:53:07;7.20;;;1.23;;
76023;SDS011;64719;52.124;6.226;2022-12-29T09:55:42;4.70;;;1.80;;
76023;SDS011;64719;52.124;6.226;2022-12-29T09:58:13;5.60;;;1.20;;
76023;SDS011;64719;52.124;6.226;2022-12-29T10:00:48;8.75;;;1.42;;
76023;SDS011;64719;52.124;6.226;2022-12-29T10:03:22;7.38;;;2.13;;
76023;SDS011;64719;52.124;6.226;2022-12-29T10:05:52;11.10;;;1.98;;
76023;SDS011;64719;52.124;6.226;2022-12-29T10:08:29;9.80;;;2.10;;
76023;SDS011;64719;52.124;6.226;2022-12-29T10:11:05;5.00;;;1.38;;
76023;SDS011;64719;52.124;6.226;2022-12-29T10:13:41;6.85;;;1.45;;
76023;SDS011;64719;52.124;6.226;2022-12-29T10:16:14;6.97;;;1.13;;
76023;SDS011;64719;52.124;6.226;2022-12-29T10:18:54;8.45;;;1.48;;
76023;SDS011;64719;52.124;6.226;2022-12-29T10:21:35;8.80;;;1.42;;
76023;SDS011;64719;52.124;6.226;2022-12-29T10:24:13;8.10;;;1.40;;
76023;SDS011;64719;52.124;6.226;2022-12-29T10:26:40;9.35;;;1.90;;
76023;SDS011;64719;52.124;6.226;2022-12-29T10:29:12;5.68;;;1.20;;
76023;SDS011;64719;52.124;6.226;2022-12-29T10:31:43;5.18;;;1.55;;
76023;SDS011;64719;52.124;6.226;2022-12-29T10:34:15;7.18;;;1.75;;
76023;SDS011;64719;52.124;6.226;2022-12-29T10:36:48;8.10;;;1.20;;
76023;SDS011;64719;52.124;6.226;2022-12-29T10:39:19;5.57;;;1.40;;
76023;SDS011;64719;52.124;6.226;2022-12-29T10:41:49;5.88;;;1.35;;
76023;SDS011;64719;52.124;6.226;2022-12-29T10:44:20;11.13;;;1.58;;
76023;SDS011;64719;52.124;6.226;2022-12-29T10:46:57;6.20;;;1.30;;
76023;SDS011;64719;52.124;6.226;2022-12-29T10:49:31;5.47;;;1.60;;
76023;SDS011;64719;52.124;6.226;2022-12-29T10:52:03;6.95;;;1.27;;
76023;SDS011;64719;52.124;6.226;2022-12-29T10:54:32;8.68;;;1.75;;
76023;SDS011;64719;52.124;6.226;2022-12-29T10:57:03;8.38;;;2.35;;
76023;SDS011;64719;52.124;6.226;2022-12-29T10:59:36;7.95;;;1.60;;
76023;SDS011;64719;52.124;6.226;2022-12-29T11:02:10;5.78;;;1.30;;
76023;SDS011;64719;52.124;6.226;2022-12-29T11:04:51;2.85;;;1.02;;
76023;SDS011;64719;52.124;6.226;2022-12-29T11:07:24;7.00;;;1.30;;
76023;SDS011;64719;52.124;6.226;2022-12-29T11:09:51;8.18;;;2.42;;
76023;SDS011;64719;52.124;6.226;2022-12-29T11:12:23;7.38;;;2.13;;
76023;SDS011;64719;52.124;6.226;2022-12-29T11:15:00;5.75;;;1.40;;
76023;SDS011;64719;52.124;6.226;2022-12-29T11:17:42;7.18;;;2.22;;
76023;SDS011;64719;52.124;6.226;2022-12-29T11:20:24;5.53;;;1.60;;
76023;SDS011;64719;52.124;6.226;2022-12-29T11:22:54;3.33;;;1.60;;
76023;SDS011;64719;52.124;6.226;2022-12-29T11:25:21;6.35;;;1.73;;
76023;SDS011;64719;52.124;6.226;2022-12-29T11:27:54;8.35;;;1.88;;
76023;SDS011;64719;52.124;6.226;2022-12-29T11:30:23;8.38;;;2.28;;
76023;SDS011;64719;52.124;6.226;2022-12-29T11:32:50;6.07;;;2.08;;
76023;SDS011;64719;52.124;6.226;2022-12-29T11:35:28;6.80;;;2.20;;
76023;SDS011;64719;52.124;6.226;2022-12-29T11:37:57;7.25;;;1.88;;
76023;SDS011;64719;52.124;6.226;2022-12-29T11:40:24;6.40;;;2.50;;
76023;SDS011;64719;52.124;6.226;2022-12-29T11:42:52;10.35;;;2.40;;
76023;SDS011;64719;52.124;6.226;2022-12-29T11:45:21;6.85;;;2.10;;
76023;SDS011;64719;52.124;6.226;2022-12-29T11:47:49;5.55;;;1.95;;
76023;SDS011;64719;52.124;6.226;2022-12-29T11:50:19;7.60;;;2.30;;
76023;SDS011;64719;52.124;6.226;2022-12-29T11:52:50;7.85;;;2.10;;
76023;SDS011;64719;52.124;6.226;2022-12-29T11:55:25;9.45;;;2.50;;
76023;SDS011;64719;52.124;6.226;2022-12-29T11:57:53;9.02;;;2.20;;
76023;SDS011;64719;52.124;6.226;2022-12-29T12:00:23;10.48;;;2.75;;
76023;SDS011;64719;52.124;6.226;2022-12-29T12:02:53;6.35;;;2.38;;
76023;SDS011;64719;52.124;6.226;2022-12-29T12:05:28;11.60;;;3.22;;
76023;SDS011;64719;52.124;6.226;2022-12-29T12:08:00;10.90;;;3.42;;
76023;SDS011;64719;52.124;6.226;2022-12-29T12:10:32;9.93;;;3.55;;
76023;SDS011;64719;52.124;6.226;2022-12-29T12:13:08;9.27;;;2.80;;
76023;SDS011;64719;52.124;6.226;2022-12-29T12:15:46;7.18;;;2.90;;
76023;SDS011;64719;52.124;6.226;2022-12-29T12:18:17;10.68;;;3.05;;
76023;SDS011;64719;52.124;6.226;2022-12-29T12:20:49;14.10;;;3.50;;
76023;SDS011;64719;52.124;6.226;2022-12-29T12:23:26;13.45;;;3.50;;
76023;SDS011;64719;52.124;6.226;2022-12-29T12:26:00;10.77;;;3.72;;
76023;SDS011;64719;52.124;6.226;2022-12-29T12:28:34;10.48;;;3.67;;
76023;SDS011;64719;52.124;6.226;2022-12-29T12:31:12;9.50;;;3.42;;
76023;SDS011;64719;52.124;6.226;2022-12-29T12:33:46;16.60;;;3.78;;
76023;SDS011;64719;52.124;6.226;2022-12-29T12:36:22;12.07;;;3.85;;
76023;SDS011;64719;52.124;6.226;2022-12-29T12:39:04;10.50;;;4.47;;
76023;SDS011;64719;52.124;6.226;2022-12-29T12:41:39;11.63;;;4.80;;
76023;SDS011;64719;52.124;6.226;2022-12-29T12:44:17;11.43;;;4.00;;
76023;SDS011;64719;52.124;6.226;2022-12-29T12:46:55;13.13;;;4.88;;
76023;SDS011;64719;52.124;6.226;2022-12-29T12:49:42;7.05;;;3.55;;
76023;SDS011;64719;52.124;6.226;2022-12-29T12:52:48;10.07;;;3.30;;
76023;SDS011;64719;52.124;6.226;2022-12-29T12:55:36;12.30;;;3.53;;
76023;SDS011;64719;52.124;6.226;2022-12-29T12:58:11;9.07;;;3.75;;
76023;SDS011;64719;52.124;6.226;2022-12-29T13:00:49;11.85;;;4.10;;
76023;SDS011;64719;52.124;6.226;2022-12-29T13:03:27;14.90;;;3.50;;
76023;SDS011;64719;52.124;6.226;2022-12-29T13:06:15;11.80;;;4.75;;
76023;SDS011;64719;52.124;6.226;2022-12-29T13:09:02;8.57;;;3.72;;
76023;SDS011;64719;52.124;6.226;2022-12-29T13:11:42;10.55;;;3.88;;
76023;SDS011;64719;52.124;6.226;2022-12-29T13:14:21;14.07;;;4.30;;
76023;SDS011;64719;52.124;6.226;2022-12-29T13:16:55;13.23;;;3.92;;
76023;SDS011;64719;52.124;6.226;2022-12-29T13:19:30;13.43;;;4.05;;
76023;SDS011;64719;52.124;6.226;2022-12-29T13:22:04;12.07;;;4.07;;
76023;SDS011;64719;52.124;6.226;2022-12-29T13:24:45;12.15;;;4.07;;
76023;SDS011;64719;52.124;6.226;2022-12-29T13:27:21;11.00;;;3.72;;
76023;SDS011;64719;52.124;6.226;2022-12-29T13:32:30;6.47;;;2.80;;
76023;SDS011;64719;52.124;6.226;2022-12-29T13:35:08;9.82;;;3.25;;
76023;SDS011;64719;52.124;6.226;2022-12-29T13:37:45;13.02;;;3.20;;
76023;SDS011;64719;52.124;6.226;2022-12-29T13:40:18;12.52;;;3.38;;
76023;SDS011;64719;52.124;6.226;2022-12-29T13:42:49;9.82;;;2.92;;
76023;SDS011;64719;52.124;6.226;2022-12-29T13:45:17;6.72;;;3.40;;
76023;SDS011;64719;52.124;6.226;2022-12-29T13:47:47;10.80;;;3.88;;
76023;SDS011;64719;52.124;6.226;2022-12-29T13:50:19;9.82;;;3.55;;
76023;SDS011;64719;52.124;6.226;2022-12-29T13:52:48;11.13;;;2.90;;
76023;SDS011;64719;52.124;6.226;2022-12-29T13:55:25;15.30;;;3.60;;
76023;SDS011;64719;52.124;6.226;2022-12-29T13:57:57;9.32;;;2.70;;
76023;SDS011;64719;52.124;6.226;2022-12-29T14:00:29;9.45;;;3.17;;
76023;SDS011;64719;52.124;6.226;2022-12-29T14:03:27;11.10;;;3.20;;
76023;SDS011;64719;52.124;6.226;2022-12-29T14:06:15;14.00;;;3.28;;
76023;SDS011;64719;52.124;6.226;2022-12-29T14:08:45;8.05;;;2.55;;
76023;SDS011;64719;52.124;6.226;2022-12-29T14:11:14;8.32;;;2.85;;
76023;SDS011;64719;52.124;6.226;2022-12-29T14:13:43;14.75;;;3.55;;
76023;SDS011;64719;52.124;6.226;2022-12-29T14:16:21;8.07;;;2.85;;
76023;SDS011;64719;52.124;6.226;2022-12-29T14:18:52;9.30;;;2.90;;
76023;SDS011;64719;52.124;6.226;2022-12-29T14:21:22;9.00;;;2.60;;
76023;SDS011;64719;52.124;6.226;2022-12-29T14:23:57;10.55;;;2.83;;
76023;SDS011;64719;52.124;6.226;2022-12-29T14:26:43;10.60;;;3.15;;
76023;SDS011;64719;52.124;6.226;2022-12-29T14:29:16;11.35;;;3.15;;
76023;SDS011;64719;52.124;6.226;2022-12-29T14:38:14;10.90;;;2.80;;
76023;SDS011;64719;52.124;6.226;2022-12-29T14:40:43;6.75;;;2.78;;
76023;SDS011;64719;52.124;6.226;2022-12-29T14:43:13;7.38;;;2.58;;
76023;SDS011;64719;52.124;6.226;2022-12-29T14:45:51;4.20;;;2.17;;
76023;SDS011;64719;52.124;6.226;2022-12-29T14:48:21;3.67;;;1.67;;
76023;SDS011;64719;52.124;6.226;2022-12-29T14:50:56;6.70;;;1.85;;
76023;SDS011;64719;52.124;6.226;2022-12-29T14:53:43;5.20;;;1.63;;
76023;SDS011;64719;52.124;6.226;2022-12-29T14:56:11;6.95;;;1.60;;
76023;SDS011;64719;52.124;6.226;2022-12-29T14:58:42;6.13;;;2.00;;
76023;SDS011;64719;52.124;6.226;2022-12-29T15:01:18;3.70;;;1.38;;
76023;SDS011;64719;52.124;6.226;2022-12-29T15:03:48;5.18;;;1.58;;
76023;SDS011;64719;52.124;6.226;2022-12-29T15:06:15;5.07;;;2.00;;
76023;SDS011;64719;52.124;6.226;2022-12-29T15:08:48;4.30;;;1.88;;
76023;SDS011;64719;52.124;6.226;2022-12-29T15:11:18;5.55;;;2.60;;
76023;SDS011;64719;52.124;6.226;2022-12-29T15:13:46;6.32;;;2.33;;
76023;SDS011;64719;52.124;6.226;2022-12-29T15:16:22;5.63;;;2.58;;
76023;SDS011;64719;52.124;6.226;2022-12-29T15:18:50;5.70;;;2.15;;
76023;SDS011;64719;52.124;6.226;2022-12-29T15:21:16;5.15;;;1.63;;
76023;SDS011;64719;52.124;6.226;2022-12-29T15:23:46;8.18;;;2.60;;
76023;SDS011;64719;52.124;6.226;2022-12-29T15:26:13;6.95;;;2.00;;